sensor_id;sensor_type;location;lat;lon;timestamp;P1;durP1;ratioP1;P2;durP2;ratioP2
12474;SDS011;6302;42.624;23.334;2023-01-23T00:02:05;3.97;;;3.63;;
12474;SDS011;6302;42.624;23.334;2023-01-23T00:04:33;4.07;;;3.63;;
12474;SDS011;6302;42.624;23.334;2023-01-23T00:07:00;4.17;;;3.60;;
12474;SDS011;6302;42.624;23.334;2023-01-23T00:09:28;5.57;;;3.60;;
12474;SDS011;6302;42.624;23.334;2023-01-23T00:11:55;4.80;;;4.07;;
12474;SDS011;6302;42.624;23.334;2023-01-23T00:14:22;5.17;;;4.07;;
12474;SDS011;6302;42.624;23.334;2023-01-23T00:16:49;4.17;;;3.83;;
12474;SDS011;6302;42.624;23.334;2023-01-23T00:19:16;4.83;;;4.27;;
12474;SDS011;6302;42.624;23.334;2023-01-23T00:21:44;5.93;;;5.30;;
12474;SDS011;6302;42.624;23.334;2023-01-23T00:24:11;9.50;;;6.50;;
12474;SDS011;6302;42.624;23.334;2023-01-23T00:26:38;14.70;;;10.13;;
12474;SDS011;6302;42.624;23.334;2023-01-23T00:29:05;16.33;;;11.77;;
12474;SDS011;6302;42.624;23.334;2023-01-23T00:31:33;8.80;;;6.57;;
12474;SDS011;6302;42.624;23.334;2023-01-23T00:34:02;6.53;;;5.90;;
12474;SDS011;6302;42.624;23.334;2023-01-23T00:36:32;12.13;;;8.17;;
12474;SDS011;6302;42.624;23.334;2023-01-23T00:39:03;8.00;;;4.50;;
12474;SDS011;6302;42.624;23.334;2023-01-23T00:41:31;5.13;;;4.30;;
12474;SDS011;6302;42.624;23.334;2023-01-23T00:43:58;8.90;;;7.27;;
12474;SDS011;6302;42.624;23.334;2023-01-23T00:46:25;6.53;;;4.50;;
12474;SDS011;6302;42.624;23.334;2023-01-23T00:48:52;6.50;;;4.57;;
12474;SDS011;6302;42.624;23.334;2023-01-23T00:51:19;4.87;;;4.10;;
12474;SDS011;6302;42.624;23.334;2023-01-23T00:53:46;6.70;;;4.13;;
12474;SDS011;6302;42.624;23.334;2023-01-23T00:56:14;4.60;;;4.20;;
12474;SDS011;6302;42.624;23.334;2023-01-23T00:58:41;6.23;;;4.50;;
12474;SDS011;6302;42.624;23.334;2023-01-23T01:01:08;8.67;;;5.70;;
12474;SDS011;6302;42.624;23.334;2023-01-23T01:03:34;7.77;;;5.73;;
12474;SDS011;6302;42.624;23.334;2023-01-23T01:06:02;11.30;;;6.87;;
12474;SDS011;6302;42.624;23.334;2023-01-23T01:08:31;11.13;;;5.20;;
12474;SDS011;6302;42.624;23.334;2023-01-23T01:10:57;7.53;;;4.90;;
12474;SDS011;6302;42.624;23.334;2023-01-23T01:13:26;8.57;;;5.30;;
12474;SDS011;6302;42.624;23.334;2023-01-23T01:15:53;7.00;;;4.30;;
12474;SDS011;6302;42.624;23.334;2023-01-23T01:18:20;9.87;;;5.83;;
12474;SDS011;6302;42.624;23.334;2023-01-23T01:20:48;6.33;;;4.80;;
12474;SDS011;6302;42.624;23.334;2023-01-23T01:23:15;7.10;;;4.33;;
12474;SDS011;6302;42.624;23.334;2023-01-23T01:25:42;6.30;;;4.53;;
12474;SDS011;6302;42.624;23.334;2023-01-23T01:28:08;6.60;;;4.53;;
12474;SDS011;6302;42.624;23.334;2023-01-23T01:30:36;3.60;;;3.23;;
12474;SDS011;6302;42.624;23.334;2023-01-23T01:33:04;4.13;;;3.73;;
12474;SDS011;6302;42.624;23.334;2023-01-23T01:35:31;5.30;;;3.37;;
12474;SDS011;6302;42.624;23.334;2023-01-23T01:37:58;5.63;;;4.40;;
12474;SDS011;6302;42.624;23.334;2023-01-23T01:40:26;7.87;;;4.23;;
12474;SDS011;6302;42.624;23.334;2023-01-23T01:42:57;9.07;;;4.30;;
12474;SDS011;6302;42.624;23.334;2023-01-23T01:48:39;4.47;;;3.90;;
12474;SDS011;6302;42.624;23.334;2023-01-23T01:51:11;5.50;;;4.00;;
12474;SDS011;6302;42.624;23.334;2023-01-23T01:53:42;5.33;;;4.67;;
12474;SDS011;6302;42.624;23.334;2023-01-23T01:56:11;6.33;;;5.33;;
12474;SDS011;6302;42.624;23.334;2023-01-23T01:58:40;5.10;;;3.90;;
12474;SDS011;6302;42.624;23.334;2023-01-23T02:01:11;6.70;;;4.13;;
12474;SDS011;6302;42.624;23.334;2023-01-23T02:03:38;6.57;;;4.93;;
12474;SDS011;6302;42.624;23.334;2023-01-23T02:06:05;4.53;;;4.10;;
12474;SDS011;6302;42.624;23.334;2023-01-23T02:08:34;6.23;;;4.33;;
12474;SDS011;6302;42.624;23.334;2023-01-23T02:11:05;4.40;;;4.00;;
12474;SDS011;6302;42.624;23.334;2023-01-23T02:13:33;7.27;;;4.73;;
12474;SDS011;6302;42.624;23.334;2023-01-23T02:16:05;7.63;;;6.00;;
12474;SDS011;6302;42.624;23.334;2023-01-23T02:18:36;23.27;;;14.03;;
12474;SDS011;6302;42.624;23.334;2023-01-23T02:21:06;25.73;;;14.23;;
12474;SDS011;6302;42.624;23.334;2023-01-23T02:23:38;22.60;;;14.77;;
12474;SDS011;6302;42.624;23.334;2023-01-23T02:26:11;11.17;;;9.33;;
12474;SDS011;6302;42.624;23.334;2023-01-23T02:28:42;12.70;;;10.30;;
12474;SDS011;6302;42.624;23.334;2023-01-23T02:31:10;10.90;;;8.60;;
12474;SDS011;6302;42.624;23.334;2023-01-23T02:33:45;6.23;;;5.17;;
12474;SDS011;6302;42.624;23.334;2023-01-23T02:36:15;6.47;;;5.43;;
12474;SDS011;6302;42.624;23.334;2023-01-23T02:38:48;5.63;;;4.43;;
12474;SDS011;6302;42.624;23.334;2023-01-23T02:41:22;6.77;;;6.03;;
12474;SDS011;6302;42.624;23.334;2023-01-23T02:43:53;8.43;;;6.70;;
12474;SDS011;6302;42.624;23.334;2023-01-23T02:46:23;7.23;;;6.13;;
12474;SDS011;6302;42.624;23.334;2023-01-23T02:48:50;8.30;;;6.60;;
12474;SDS011;6302;42.624;23.334;2023-01-23T02:51:17;11.73;;;8.40;;
12474;SDS011;6302;42.624;23.334;2023-01-23T02:53:46;9.43;;;7.37;;
12474;SDS011;6302;42.624;23.334;2023-01-23T02:56:13;6.03;;;4.47;;
12474;SDS011;6302;42.624;23.334;2023-01-23T02:58:42;5.77;;;4.10;;
12474;SDS011;6302;42.624;23.334;2023-01-23T03:01:26;5.23;;;4.17;;
12474;SDS011;6302;42.624;23.334;2023-01-23T03:03:53;4.07;;;3.67;;
12474;SDS011;6302;42.624;23.334;2023-01-23T03:06:28;4.90;;;4.20;;
12474;SDS011;6302;42.624;23.334;2023-01-23T03:09:00;6.37;;;4.90;;
12474;SDS011;6302;42.624;23.334;2023-01-23T03:11:32;5.40;;;4.90;;
12474;SDS011;6302;42.624;23.334;2023-01-23T03:14:01;6.90;;;5.80;;
12474;SDS011;6302;42.624;23.334;2023-01-23T03:16:28;4.90;;;3.53;;
12474;SDS011;6302;42.624;23.334;2023-01-23T03:18:55;4.40;;;3.57;;
12474;SDS011;6302;42.624;23.334;2023-01-23T03:21:25;3.90;;;3.50;;
12474;SDS011;6302;42.624;23.334;2023-01-23T03:23:52;4.30;;;3.90;;
12474;SDS011;6302;42.624;23.334;2023-01-23T03:26:19;6.67;;;5.60;;
12474;SDS011;6302;42.624;23.334;2023-01-23T03:28:46;4.90;;;4.40;;
12474;SDS011;6302;42.624;23.334;2023-01-23T03:31:31;5.33;;;4.77;;
12474;SDS011;6302;42.624;23.334;2023-01-23T03:33:58;6.43;;;5.53;;
12474;SDS011;6302;42.624;23.334;2023-01-23T03:36:25;6.40;;;4.67;;
12474;SDS011;6302;42.624;23.334;2023-01-23T03:38:52;5.97;;;5.20;;
12474;SDS011;6302;42.624;23.334;2023-01-23T03:41:36;5.27;;;3.83;;
12474;SDS011;6302;42.624;23.334;2023-01-23T03:44:06;6.90;;;4.13;;
12474;SDS011;6302;42.624;23.334;2023-01-23T03:46:34;4.53;;;3.90;;
12474;SDS011;6302;42.624;23.334;2023-01-23T03:49:01;5.33;;;4.10;;
12474;SDS011;6302;42.624;23.334;2023-01-23T03:51:28;6.00;;;4.87;;
12474;SDS011;6302;42.624;23.334;2023-01-23T03:53:55;7.33;;;5.40;;
12474;SDS011;6302;42.624;23.334;2023-01-23T03:56:22;7.87;;;4.73;;
12474;SDS011;6302;42.624;23.334;2023-01-23T03:58:48;5.97;;;5.10;;
12474;SDS011;6302;42.624;23.334;2023-01-23T04:01:17;5.10;;;4.60;;
12474;SDS011;6302;42.624;23.334;2023-01-23T04:03:48;5.23;;;4.73;;
12474;SDS011;6302;42.624;23.334;2023-01-23T04:06:15;5.73;;;4.90;;
12474;SDS011;6302;42.624;23.334;2023-01-23T04:08:42;6.27;;;5.23;;
12474;SDS011;6302;42.624;23.334;2023-01-23T04:11:09;6.33;;;4.87;;
12474;SDS011;6302;42.624;23.334;2023-01-23T04:13:37;6.00;;;4.27;;
12474;SDS011;6302;42.624;23.334;2023-01-23T04:16:05;8.60;;;5.30;;
12474;SDS011;6302;42.624;23.334;2023-01-23T04:18:32;5.27;;;4.27;;
12474;SDS011;6302;42.624;23.334;2023-01-23T04:21:00;7.87;;;4.80;;
12474;SDS011;6302;42.624;23.334;2023-01-23T04:23:27;5.00;;;4.47;;
12474;SDS011;6302;42.624;23.334;2023-01-23T04:25:54;5.23;;;4.37;;
12474;SDS011;6302;42.624;23.334;2023-01-23T04:28:21;6.80;;;5.53;;
12474;SDS011;6302;42.624;23.334;2023-01-23T04:30:48;4.83;;;4.33;;
12474;SDS011;6302;42.624;23.334;2023-01-23T04:33:15;4.77;;;4.17;;
12474;SDS011;6302;42.624;23.334;2023-01-23T04:35:47;4.93;;;4.07;;
12474;SDS011;6302;42.624;23.334;2023-01-23T04:38:17;4.70;;;4.30;;
12474;SDS011;6302;42.624;23.334;2023-01-23T04:40:44;5.47;;;4.40;;
12474;SDS011;6302;42.624;23.334;2023-01-23T04:43:12;4.13;;;3.80;;
12474;SDS011;6302;42.624;23.334;2023-01-23T04:45:39;5.13;;;3.83;;
12474;SDS011;6302;42.624;23.334;2023-01-23T04:48:06;3.97;;;3.57;;
12474;SDS011;6302;42.624;23.334;2023-01-23T04:50:32;3.60;;;3.20;;
12474;SDS011;6302;42.624;23.334;2023-01-23T04:52:59;3.40;;;3.10;;
12474;SDS011;6302;42.624;23.334;2023-01-23T04:55:28;3.50;;;3.20;;
12474;SDS011;6302;42.624;23.334;2023-01-23T04:57:54;3.60;;;3.30;;
12474;SDS011;6302;42.624;23.334;2023-01-23T05:00:21;5.73;;;4.27;;
12474;SDS011;6302;42.624;23.334;2023-01-23T05:02:49;5.57;;;4.60;;
12474;SDS011;6302;42.624;23.334;2023-01-23T05:05:15;5.80;;;4.53;;
12474;SDS011;6302;42.624;23.334;2023-01-23T05:07:45;4.10;;;3.67;;
12474;SDS011;6302;42.624;23.334;2023-01-23T05:10:12;4.90;;;3.90;;
12474;SDS011;6302;42.624;23.334;2023-01-23T05:12:41;5.17;;;4.67;;
12474;SDS011;6302;42.624;23.334;2023-01-23T05:15:08;5.80;;;4.10;;
12474;SDS011;6302;42.624;23.334;2023-01-23T05:17:35;5.00;;;4.50;;
12474;SDS011;6302;42.624;23.334;2023-01-23T05:20:03;5.37;;;3.80;;
12474;SDS011;6302;42.624;23.334;2023-01-23T05:22:31;5.40;;;4.90;;
12474;SDS011;6302;42.624;23.334;2023-01-23T05:24:57;5.40;;;4.20;;
12474;SDS011;6302;42.624;23.334;2023-01-23T05:27:24;4.30;;;3.80;;
12474;SDS011;6302;42.624;23.334;2023-01-23T05:29:53;5.43;;;4.93;;
12474;SDS011;6302;42.624;23.334;2023-01-23T05:32:19;6.73;;;4.07;;
12474;SDS011;6302;42.624;23.334;2023-01-23T05:34:46;5.13;;;4.07;;
12474;SDS011;6302;42.624;23.334;2023-01-23T05:37:13;7.67;;;5.43;;
12474;SDS011;6302;42.624;23.334;2023-01-23T05:39:40;7.00;;;5.07;;
12474;SDS011;6302;42.624;23.334;2023-01-23T05:42:07;4.60;;;3.90;;
12474;SDS011;6302;42.624;23.334;2023-01-23T05:44:33;4.90;;;4.20;;
12474;SDS011;6302;42.624;23.334;2023-01-23T05:47:02;7.83;;;4.90;;
12474;SDS011;6302;42.624;23.334;2023-01-23T05:49:28;4.87;;;3.63;;
12474;SDS011;6302;42.624;23.334;2023-01-23T05:51:55;5.37;;;4.10;;
12474;SDS011;6302;42.624;23.334;2023-01-23T05:54:22;5.17;;;4.27;;
12474;SDS011;6302;42.624;23.334;2023-01-23T05:56:49;4.63;;;4.10;;
12474;SDS011;6302;42.624;23.334;2023-01-23T05:59:17;4.87;;;3.47;;
12474;SDS011;6302;42.624;23.334;2023-01-23T06:01:44;5.80;;;4.30;;
12474;SDS011;6302;42.624;23.334;2023-01-23T06:04:12;3.33;;;3.03;;
12474;SDS011;6302;42.624;23.334;2023-01-23T06:06:40;3.70;;;3.30;;
12474;SDS011;6302;42.624;23.334;2023-01-23T06:09:10;5.70;;;4.33;;
12474;SDS011;6302;42.624;23.334;2023-01-23T06:11:37;4.07;;;3.67;;
12474;SDS011;6302;42.624;23.334;2023-01-23T06:14:04;3.93;;;3.20;;
12474;SDS011;6302;42.624;23.334;2023-01-23T06:16:31;4.40;;;3.70;;
12474;SDS011;6302;42.624;23.334;2023-01-23T06:18:57;4.17;;;3.20;;
12474;SDS011;6302;42.624;23.334;2023-01-23T06:21:26;5.53;;;4.10;;
12474;SDS011;6302;42.624;23.334;2023-01-23T06:23:52;3.10;;;2.60;;
12474;SDS011;6302;42.624;23.334;2023-01-23T06:26:19;3.10;;;2.80;;
12474;SDS011;6302;42.624;23.334;2023-01-23T06:28:46;3.23;;;2.90;;
12474;SDS011;6302;42.624;23.334;2023-01-23T06:31:13;3.50;;;3.20;;
12474;SDS011;6302;42.624;23.334;2023-01-23T06:33:39;3.83;;;3.40;;
12474;SDS011;6302;42.624;23.334;2023-01-23T06:36:06;3.80;;;3.07;;
12474;SDS011;6302;42.624;23.334;2023-01-23T06:38:35;5.77;;;4.07;;
12474;SDS011;6302;42.624;23.334;2023-01-23T06:41:02;4.20;;;3.47;;
12474;SDS011;6302;42.624;23.334;2023-01-23T06:43:29;4.97;;;3.83;;
12474;SDS011;6302;42.624;23.334;2023-01-23T06:45:55;4.50;;;3.67;;
12474;SDS011;6302;42.624;23.334;2023-01-23T06:48:22;5.03;;;3.60;;
12474;SDS011;6302;42.624;23.334;2023-01-23T06:50:49;10.00;;;6.07;;
12474;SDS011;6302;42.624;23.334;2023-01-23T06:53:16;13.53;;;7.73;;
12474;SDS011;6302;42.624;23.334;2023-01-23T06:55:45;10.27;;;5.80;;
12474;SDS011;6302;42.624;23.334;2023-01-23T06:58:12;10.53;;;7.20;;
12474;SDS011;6302;42.624;23.334;2023-01-23T07:00:39;15.77;;;7.73;;
12474;SDS011;6302;42.624;23.334;2023-01-23T07:03:09;15.97;;;8.50;;
12474;SDS011;6302;42.624;23.334;2023-01-23T07:05:36;25.17;;;10.93;;
12474;SDS011;6302;42.624;23.334;2023-01-23T07:08:05;16.93;;;8.83;;
12474;SDS011;6302;42.624;23.334;2023-01-23T07:10:32;19.80;;;9.67;;
12474;SDS011;6302;42.624;23.334;2023-01-23T07:13:00;24.73;;;11.53;;
12474;SDS011;6302;42.624;23.334;2023-01-23T07:15:27;20.10;;;10.27;;
12474;SDS011;6302;42.624;23.334;2023-01-23T07:17:54;21.53;;;11.50;;
12474;SDS011;6302;42.624;23.334;2023-01-23T07:20:21;25.23;;;13.57;;
12474;SDS011;6302;42.624;23.334;2023-01-23T07:22:51;22.80;;;10.87;;
12474;SDS011;6302;42.624;23.334;2023-01-23T07:25:18;19.77;;;10.70;;
12474;SDS011;6302;42.624;23.334;2023-01-23T07:27:45;20.77;;;12.03;;
12474;SDS011;6302;42.624;23.334;2023-01-23T07:30:13;20.73;;;12.20;;
12474;SDS011;6302;42.624;23.334;2023-01-23T07:32:43;15.37;;;10.30;;
12474;SDS011;6302;42.624;23.334;2023-01-23T07:35:10;12.63;;;9.17;;
12474;SDS011;6302;42.624;23.334;2023-01-23T07:37:36;12.83;;;8.67;;
12474;SDS011;6302;42.624;23.334;2023-01-23T07:40:03;14.00;;;9.27;;
12474;SDS011;6302;42.624;23.334;2023-01-23T07:42:31;13.67;;;8.57;;
12474;SDS011;6302;42.624;23.334;2023-01-23T07:44:58;13.70;;;9.00;;
12474;SDS011;6302;42.624;23.334;2023-01-23T07:47:26;16.53;;;10.50;;
12474;SDS011;6302;42.624;23.334;2023-01-23T07:49:53;12.83;;;9.07;;
12474;SDS011;6302;42.624;23.334;2023-01-23T07:52:19;12.83;;;8.60;;
12474;SDS011;6302;42.624;23.334;2023-01-23T07:54:46;10.63;;;7.00;;
12474;SDS011;6302;42.624;23.334;2023-01-23T07:57:13;12.07;;;7.40;;
12474;SDS011;6302;42.624;23.334;2023-01-23T07:59:40;9.50;;;6.70;;
12474;SDS011;6302;42.624;23.334;2023-01-23T08:02:07;11.53;;;7.13;;
12474;SDS011;6302;42.624;23.334;2023-01-23T08:04:37;9.03;;;5.87;;
12474;SDS011;6302;42.624;23.334;2023-01-23T08:07:04;13.77;;;9.50;;
12474;SDS011;6302;42.624;23.334;2023-01-23T08:09:31;12.20;;;7.43;;
12474;SDS011;6302;42.624;23.334;2023-01-23T08:11:58;10.17;;;5.97;;
12474;SDS011;6302;42.624;23.334;2023-01-23T08:14:25;9.67;;;6.30;;
12474;SDS011;6302;42.624;23.334;2023-01-23T08:20:15;8.30;;;6.47;;
12474;SDS011;6302;42.624;23.334;2023-01-23T08:22:42;8.03;;;6.00;;
12474;SDS011;6302;42.624;23.334;2023-01-23T08:25:09;10.20;;;6.63;;
12474;SDS011;6302;42.624;23.334;2023-01-23T08:27:36;8.60;;;6.13;;
12474;SDS011;6302;42.624;23.334;2023-01-23T08:30:03;12.27;;;7.87;;
12474;SDS011;6302;42.624;23.334;2023-01-23T08:32:33;15.27;;;8.97;;
12474;SDS011;6302;42.624;23.334;2023-01-23T08:35:00;8.50;;;5.47;;
12474;SDS011;6302;42.624;23.334;2023-01-23T08:37:29;15.03;;;7.73;;
12474;SDS011;6302;42.624;23.334;2023-01-23T08:39:57;10.67;;;6.90;;
12474;SDS011;6302;42.624;23.334;2023-01-23T08:42:24;7.23;;;5.60;;
12474;SDS011;6302;42.624;23.334;2023-01-23T08:44:50;13.17;;;8.47;;
12474;SDS011;6302;42.624;23.334;2023-01-23T08:47:17;12.03;;;7.40;;
12474;SDS011;6302;42.624;23.334;2023-01-23T08:49:44;11.50;;;6.87;;
12474;SDS011;6302;42.624;23.334;2023-01-23T08:52:11;15.40;;;9.27;;
12474;SDS011;6302;42.624;23.334;2023-01-23T08:54:39;10.70;;;6.83;;
12474;SDS011;6302;42.624;23.334;2023-01-23T08:57:06;10.33;;;6.83;;
12474;SDS011;6302;42.624;23.334;2023-01-23T08:59:33;15.43;;;8.83;;
12474;SDS011;6302;42.624;23.334;2023-01-23T09:01:59;12.67;;;8.37;;
12474;SDS011;6302;42.624;23.334;2023-01-23T09:04:26;12.23;;;7.23;;
12474;SDS011;6302;42.624;23.334;2023-01-23T09:06:53;10.17;;;6.77;;
12474;SDS011;6302;42.624;23.334;2023-01-23T09:09:20;13.93;;;8.03;;
12474;SDS011;6302;42.624;23.334;2023-01-23T09:11:48;12.80;;;6.27;;
12474;SDS011;6302;42.624;23.334;2023-01-23T09:14:15;17.03;;;9.17;;
12474;SDS011;6302;42.624;23.334;2023-01-23T09:16:42;8.80;;;5.43;;
12474;SDS011;6302;42.624;23.334;2023-01-23T09:19:08;16.83;;;8.83;;
12474;SDS011;6302;42.624;23.334;2023-01-23T09:21:36;16.73;;;8.60;;
12474;SDS011;6302;42.624;23.334;2023-01-23T09:24:04;9.07;;;6.30;;
12474;SDS011;6302;42.624;23.334;2023-01-23T09:26:31;13.63;;;7.10;;
12474;SDS011;6302;42.624;23.334;2023-01-23T09:28:59;6.80;;;5.00;;
12474;SDS011;6302;42.624;23.334;2023-01-23T09:31:26;15.93;;;10.00;;
12474;SDS011;6302;42.624;23.334;2023-01-23T09:33:53;8.17;;;5.37;;
12474;SDS011;6302;42.624;23.334;2023-01-23T09:36:20;9.77;;;5.97;;
12474;SDS011;6302;42.624;23.334;2023-01-23T09:38:47;13.60;;;7.80;;
12474;SDS011;6302;42.624;23.334;2023-01-23T09:41:15;11.97;;;8.07;;
12474;SDS011;6302;42.624;23.334;2023-01-23T09:43:46;11.17;;;6.60;;
12474;SDS011;6302;42.624;23.334;2023-01-23T09:46:20;9.80;;;6.47;;
12474;SDS011;6302;42.624;23.334;2023-01-23T09:48:52;10.13;;;7.10;;
12474;SDS011;6302;42.624;23.334;2023-01-23T09:51:24;13.70;;;9.00;;
12474;SDS011;6302;42.624;23.334;2023-01-23T09:53:56;16.57;;;9.90;;
12474;SDS011;6302;42.624;23.334;2023-01-23T09:56:29;11.80;;;7.43;;
12474;SDS011;6302;42.624;23.334;2023-01-23T09:59:02;14.00;;;8.37;;
12474;SDS011;6302;42.624;23.334;2023-01-23T10:01:38;12.13;;;6.47;;
12474;SDS011;6302;42.624;23.334;2023-01-23T10:04:05;9.13;;;6.53;;
12474;SDS011;6302;42.624;23.334;2023-01-23T10:06:46;8.20;;;6.20;;
12474;SDS011;6302;42.624;23.334;2023-01-23T10:09:45;7.23;;;5.30;;
12474;SDS011;6302;42.624;23.334;2023-01-23T10:12:28;8.10;;;6.27;;
12474;SDS011;6302;42.624;23.334;2023-01-23T10:15:12;8.07;;;6.00;;
12474;SDS011;6302;42.624;23.334;2023-01-23T10:17:49;8.00;;;6.20;;
12474;SDS011;6302;42.624;23.334;2023-01-23T10:20:42;8.77;;;6.33;;
12474;SDS011;6302;42.624;23.334;2023-01-23T10:23:19;8.77;;;6.37;;
12474;SDS011;6302;42.624;23.334;2023-01-23T10:26:02;8.63;;;6.03;;
12474;SDS011;6302;42.624;23.334;2023-01-23T10:28:31;7.57;;;6.30;;
12474;SDS011;6302;42.624;23.334;2023-01-23T10:31:03;7.03;;;5.40;;
12474;SDS011;6302;42.624;23.334;2023-01-23T10:33:38;9.57;;;6.30;;
12474;SDS011;6302;42.624;23.334;2023-01-23T10:36:15;11.17;;;7.40;;
12474;SDS011;6302;42.624;23.334;2023-01-23T10:38:47;8.07;;;6.00;;
12474;SDS011;6302;42.624;23.334;2023-01-23T10:41:19;12.77;;;8.93;;
12474;SDS011;6302;42.624;23.334;2023-01-23T10:43:46;9.53;;;7.70;;
12474;SDS011;6302;42.624;23.334;2023-01-23T10:46:15;10.60;;;6.90;;
12474;SDS011;6302;42.624;23.334;2023-01-23T10:48:46;8.37;;;6.63;;
12474;SDS011;6302;42.624;23.334;2023-01-23T10:51:23;11.90;;;7.60;;
12474;SDS011;6302;42.624;23.334;2023-01-23T10:54:01;7.70;;;6.73;;
12474;SDS011;6302;42.624;23.334;2023-01-23T10:56:35;7.93;;;7.00;;
12474;SDS011;6302;42.624;23.334;2023-01-23T10:59:12;11.13;;;6.70;;
12474;SDS011;6302;42.624;23.334;2023-01-23T11:01:52;9.43;;;8.03;;
12474;SDS011;6302;42.624;23.334;2023-01-23T11:04:24;10.50;;;8.77;;
12474;SDS011;6302;42.624;23.334;2023-01-23T11:06:59;9.23;;;7.50;;
12474;SDS011;6302;42.624;23.334;2023-01-23T11:09:29;10.10;;;8.17;;
12474;SDS011;6302;42.624;23.334;2023-01-23T11:12:01;8.47;;;7.17;;
12474;SDS011;6302;42.624;23.334;2023-01-23T11:14:29;8.70;;;6.13;;
12474;SDS011;6302;42.624;23.334;2023-01-23T11:16:58;8.80;;;6.90;;
12474;SDS011;6302;42.624;23.334;2023-01-23T11:19:28;8.37;;;6.77;;
12474;SDS011;6302;42.624;23.334;2023-01-23T11:21:57;10.53;;;7.33;;
12474;SDS011;6302;42.624;23.334;2023-01-23T11:24:33;9.10;;;6.43;;
12474;SDS011;6302;42.624;23.334;2023-01-23T11:27:02;8.30;;;6.80;;
12474;SDS011;6302;42.624;23.334;2023-01-23T11:29:41;8.93;;;7.10;;
12474;SDS011;6302;42.624;23.334;2023-01-23T11:32:21;9.53;;;7.17;;
12474;SDS011;6302;42.624;23.334;2023-01-23T11:34:51;7.03;;;6.13;;
12474;SDS011;6302;42.624;23.334;2023-01-23T11:37:29;9.63;;;6.70;;
12474;SDS011;6302;42.624;23.334;2023-01-23T11:40:00;10.23;;;6.60;;
12474;SDS011;6302;42.624;23.334;2023-01-23T11:42:31;6.77;;;5.97;;
12474;SDS011;6302;42.624;23.334;2023-01-23T11:45:00;8.40;;;6.57;;
12474;SDS011;6302;42.624;23.334;2023-01-23T11:53:18;8.33;;;7.10;;
12474;SDS011;6302;42.624;23.334;2023-01-23T11:55:58;8.97;;;7.00;;
12474;SDS011;6302;42.624;23.334;2023-01-23T11:58:52;7.93;;;6.37;;
12474;SDS011;6302;42.624;23.334;2023-01-23T12:01:39;7.67;;;6.47;;
12474;SDS011;6302;42.624;23.334;2023-01-23T12:04:26;9.57;;;7.20;;
12474;SDS011;6302;42.624;23.334;2023-01-23T12:09:52;9.13;;;6.57;;
12474;SDS011;6302;42.624;23.334;2023-01-23T12:12:30;10.23;;;7.80;;
12474;SDS011;6302;42.624;23.334;2023-01-23T12:15:13;10.40;;;8.10;;
12474;SDS011;6302;42.624;23.334;2023-01-23T12:17:54;9.70;;;7.27;;
12474;SDS011;6302;42.624;23.334;2023-01-23T12:20:36;8.80;;;7.33;;
12474;SDS011;6302;42.624;23.334;2023-01-23T12:26:10;9.67;;;6.80;;
12474;SDS011;6302;42.624;23.334;2023-01-23T12:28:46;11.23;;;7.43;;
12474;SDS011;6302;42.624;23.334;2023-01-23T12:31:33;9.43;;;7.20;;
12474;SDS011;6302;42.624;23.334;2023-01-23T12:34:18;10.67;;;7.43;;
12474;SDS011;6302;42.624;23.334;2023-01-23T12:37:10;9.13;;;6.63;;
12474;SDS011;6302;42.624;23.334;2023-01-23T12:40:04;11.10;;;7.73;;
12474;SDS011;6302;42.624;23.334;2023-01-23T12:42:39;11.10;;;7.20;;
12474;SDS011;6302;42.624;23.334;2023-01-23T12:45:14;7.97;;;6.43;;
12474;SDS011;6302;42.624;23.334;2023-01-23T12:47:47;10.27;;;7.70;;
12474;SDS011;6302;42.624;23.334;2023-01-23T12:50:20;9.10;;;6.43;;
12474;SDS011;6302;42.624;23.334;2023-01-23T12:52:54;9.03;;;7.17;;
12474;SDS011;6302;42.624;23.334;2023-01-23T12:55:27;10.30;;;6.70;;
12474;SDS011;6302;42.624;23.334;2023-01-23T12:58:00;10.13;;;7.40;;
12474;SDS011;6302;42.624;23.334;2023-01-23T13:00:31;9.07;;;7.33;;
12474;SDS011;6302;42.624;23.334;2023-01-23T13:03:11;10.97;;;7.27;;
12474;SDS011;6302;42.624;23.334;2023-01-23T13:05:55;10.43;;;7.60;;
12474;SDS011;6302;42.624;23.334;2023-01-23T13:08:34;10.43;;;7.63;;
12474;SDS011;6302;42.624;23.334;2023-01-23T13:11:08;10.30;;;7.57;;
12474;SDS011;6302;42.624;23.334;2023-01-23T13:13:57;9.73;;;7.73;;
12474;SDS011;6302;42.624;23.334;2023-01-23T13:16:25;11.13;;;7.70;;
12474;SDS011;6302;42.624;23.334;2023-01-23T13:18:55;11.47;;;7.83;;
12474;SDS011;6302;42.624;23.334;2023-01-23T13:21:41;11.23;;;8.13;;
12474;SDS011;6302;42.624;23.334;2023-01-23T13:24:30;11.83;;;8.50;;
12474;SDS011;6302;42.624;23.334;2023-01-23T13:27:42;11.93;;;7.80;;
12474;SDS011;6302;42.624;23.334;2023-01-23T13:36:18;12.20;;;7.47;;
12474;SDS011;6302;42.624;23.334;2023-01-23T13:41:47;10.70;;;7.97;;
12474;SDS011;6302;42.624;23.334;2023-01-23T13:44:17;10.83;;;7.70;;
12474;SDS011;6302;42.624;23.334;2023-01-23T13:47:08;9.90;;;7.30;;
12474;SDS011;6302;42.624;23.334;2023-01-23T13:50:03;8.77;;;7.07;;
12474;SDS011;6302;42.624;23.334;2023-01-23T13:52:35;7.67;;;6.13;;
12474;SDS011;6302;42.624;23.334;2023-01-23T13:55:33;10.70;;;7.50;;
12474;SDS011;6302;42.624;23.334;2023-01-23T13:58:24;7.27;;;6.43;;
12474;SDS011;6302;42.624;23.334;2023-01-23T14:00:56;7.70;;;6.20;;
12474;SDS011;6302;42.624;23.334;2023-01-23T14:03:48;8.40;;;6.20;;
12474;SDS011;6302;42.624;23.334;2023-01-23T14:06:36;8.33;;;6.50;;
12474;SDS011;6302;42.624;23.334;2023-01-23T14:09:15;9.13;;;7.23;;
12474;SDS011;6302;42.624;23.334;2023-01-23T14:11:45;9.23;;;6.37;;
12474;SDS011;6302;42.624;23.334;2023-01-23T14:14:13;7.37;;;6.13;;
12474;SDS011;6302;42.624;23.334;2023-01-23T14:16:59;9.37;;;6.80;;
12474;SDS011;6302;42.624;23.334;2023-01-23T14:19:27;9.37;;;6.90;;
12474;SDS011;6302;42.624;23.334;2023-01-23T14:21:55;7.90;;;6.43;;
12474;SDS011;6302;42.624;23.334;2023-01-23T14:24:26;8.67;;;6.67;;
12474;SDS011;6302;42.624;23.334;2023-01-23T14:27:06;8.70;;;7.03;;
12474;SDS011;6302;42.624;23.334;2023-01-23T14:29:34;9.07;;;6.30;;
12474;SDS011;6302;42.624;23.334;2023-01-23T14:32:02;7.93;;;6.23;;
12474;SDS011;6302;42.624;23.334;2023-01-23T14:34:37;8.20;;;6.27;;
12474;SDS011;6302;42.624;23.334;2023-01-23T14:37:05;9.60;;;7.63;;
12474;SDS011;6302;42.624;23.334;2023-01-23T14:39:35;9.50;;;7.37;;
12474;SDS011;6302;42.624;23.334;2023-01-23T14:42:03;9.30;;;6.80;;
12474;SDS011;6302;42.624;23.334;2023-01-23T14:44:33;10.47;;;7.30;;
12474;SDS011;6302;42.624;23.334;2023-01-23T14:47:10;9.80;;;7.03;;
12474;SDS011;6302;42.624;23.334;2023-01-23T14:49:41;8.57;;;6.50;;
12474;SDS011;6302;42.624;23.334;2023-01-23T14:52:22;8.40;;;6.87;;
12474;SDS011;6302;42.624;23.334;2023-01-23T14:54:50;9.20;;;6.90;;
12474;SDS011;6302;42.624;23.334;2023-01-23T14:57:17;10.17;;;7.50;;
12474;SDS011;6302;42.624;23.334;2023-01-23T14:59:45;10.17;;;7.70;;
12474;SDS011;6302;42.624;23.334;2023-01-23T15:02:25;9.60;;;7.33;;
12474;SDS011;6302;42.624;23.334;2023-01-23T15:05:07;10.20;;;6.83;;
12474;SDS011;6302;42.624;23.334;2023-01-23T15:07:41;8.10;;;6.43;;
12474;SDS011;6302;42.624;23.334;2023-01-23T15:10:16;9.87;;;6.83;;
12474;SDS011;6302;42.624;23.334;2023-01-23T15:12:47;10.20;;;7.10;;
12474;SDS011;6302;42.624;23.334;2023-01-23T15:15:16;9.50;;;7.37;;
12474;SDS011;6302;42.624;23.334;2023-01-23T15:17:46;10.63;;;7.70;;
12474;SDS011;6302;42.624;23.334;2023-01-23T15:20:26;10.50;;;8.00;;
12474;SDS011;6302;42.624;23.334;2023-01-23T15:22:54;8.10;;;6.70;;
12474;SDS011;6302;42.624;23.334;2023-01-23T15:25:25;8.60;;;6.60;;
12474;SDS011;6302;42.624;23.334;2023-01-23T15:27:53;8.73;;;6.13;;
12474;SDS011;6302;42.624;23.334;2023-01-23T15:30:35;9.00;;;6.43;;
12474;SDS011;6302;42.624;23.334;2023-01-23T15:33:21;9.50;;;6.90;;